createdAt,value
2023-04-19T00:02:37.247Z,10.32
2023-04-19T00:07:33.467Z,10.26
2023-04-19T00:12:30.017Z,10.2
2023-04-19T00:17:26.564Z,10.32
2023-04-19T00:23:37.232Z,10.13
2023-04-19T00:28:33.773Z,10.13
2023-04-19T00:33:30.266Z,10.07
2023-04-19T00:38:26.851Z,10
2023-04-19T00:44:37.484Z,10
2023-04-19T00:49:34.015Z,10.07
2023-04-19T00:54:30.504Z,10.13
2023-04-19T00:59:27.120Z,10.07
2023-04-19T01:05:37.743Z,9.88
2023-04-19T01:10:34.266Z,9.63
2023-04-19T01:15:30.785Z,9.45
2023-04-19T01:20:27.319Z,9.39
2023-04-19T01:26:38.067Z,9.27
2023-04-19T01:31:34.597Z,9.39
2023-04-19T01:36:31.041Z,9.39
2023-04-19T01:41:27.592Z,9.39
2023-04-19T01:46:24.177Z,9.27
2023-04-19T01:52:34.841Z,9.15
2023-04-19T01:57:31.344Z,9.15
2023-04-19T02:02:28.000Z,9.21
2023-04-19T02:07:24.491Z,9.33
2023-04-19T02:13:35.233Z,9.45
2023-04-19T02:18:31.574Z,9.33
2023-04-19T02:23:28.132Z,9.21
2023-04-19T02:29:38.876Z,9.1
2023-04-19T02:34:35.447Z,9.21
2023-04-19T02:39:31.872Z,9.15
2023-04-19T02:44:28.384Z,9.33
2023-04-19T02:49:25.002Z,9.39
2023-04-19T02:55:35.648Z,9.51
2023-04-19T03:05:28.763Z,9.51
2023-04-19T03:10:25.200Z,9.57
2023-04-19T03:16:35.898Z,9.57
2023-04-19T03:21:32.367Z,9.51
2023-04-19T03:26:29.003Z,9.45
2023-04-19T03:37:36.205Z,9.51
2023-04-19T03:42:32.631Z,9.57
2023-04-19T03:47:29.248Z,9.51
2023-04-19T03:52:25.889Z,9.51
2023-04-19T03:58:36.433Z,9.57
2023-04-19T04:03:33.079Z,9.57
2023-04-19T04:08:29.447Z,9.57
2023-04-19T04:13:26.207Z,9.57
2023-04-19T04:19:36.700Z,9.51
2023-04-19T04:24:33.136Z,9.51
2023-04-19T04:29:29.685Z,9.39
2023-04-19T04:34:26.266Z,9.45
2023-04-19T04:40:36.928Z,9.45
2023-04-19T04:45:33.528Z,9.45
2023-04-19T04:50:30.068Z,9.45
2023-04-19T04:55:26.481Z,9.45
2023-04-19T05:01:37.231Z,9.51
2023-04-19T05:06:33.754Z,9.51
2023-04-19T05:11:30.215Z,9.57
2023-04-19T05:16:26.793Z,9.57
2023-04-19T05:22:37.764Z,9.57
2023-04-19T05:27:33.979Z,9.51
2023-04-19T05:32:30.618Z,9.57
2023-04-19T05:37:27.025Z,9.57
2023-04-19T05:43:37.697Z,9.57
2023-04-19T05:48:34.322Z,9.57
2023-04-19T05:53:30.739Z,9.63
2023-04-19T05:58:27.344Z,9.76
2023-04-19T06:04:38.254Z,9.76
2023-04-19T06:09:34.578Z,9.82
2023-04-19T06:14:31.020Z,9.76
2023-04-19T06:19:27.552Z,9.69
2023-04-19T06:25:38.216Z,9.88
2023-04-19T06:30:34.821Z,9.88
2023-04-19T06:35:31.257Z,10
2023-04-19T06:40:28.037Z,10.07
2023-04-19T06:46:38.487Z,10.2
2023-04-19T06:51:35.036Z,10.39
2023-04-19T06:56:31.526Z,10.26
2023-04-19T07:01:28.154Z,10.52
2023-04-19T07:07:38.852Z,10.72
2023-04-19T07:12:35.312Z,10.72
2023-04-19T07:17:31.821Z,10.92
2023-04-19T07:22:28.378Z,11.14
2023-04-19T07:27:25.046Z,10.62
2023-04-19T07:33:35.547Z,10.63
2023-04-19T07:38:32.082Z,10.2
2023-04-19T07:43:28.728Z,10.05
2023-04-19T07:48:25.194Z,9.65
2023-04-19T07:54:35.889Z,9.44
2023-04-19T07:59:32.372Z,9.33
2023-04-19T08:04:29.417Z,9.33
2023-04-19T08:20:32.685Z,8.28
2023-04-19T08:25:29.173Z,8.35
2023-04-19T08:30:25.790Z,8.27
2023-04-19T08:36:43.378Z,8.59
2023-04-19T08:41:32.910Z,8.32
2023-04-19T08:46:29.582Z,8.5
2023-04-19T08:51:26.197Z,8.12
2023-04-19T08:57:36.634Z,7.97
2023-04-19T09:02:33.281Z,7.83
2023-04-19T09:07:30.051Z,7.62
2023-04-19T09:12:26.356Z,7.46
2023-04-19T09:18:42.477Z,7.24
2023-04-19T09:23:33.424Z,7.38
2023-04-19T09:28:29.946Z,6.89
2023-04-19T09:39:37.193Z,7.2
2023-04-19T09:45:09.491Z,7.3
2023-04-19T09:49:41.712Z,7.12
2023-04-19T09:54:26.756Z,7.44
2023-04-19T10:00:47.476Z,7.33
2023-04-19T10:05:34.014Z,7.31
2023-04-19T10:10:41.275Z,7.43
2023-04-19T10:15:31.467Z,7.45
2023-04-19T10:21:37.798Z,7.23
2023-04-19T10:26:34.248Z,7.43
2023-04-19T10:31:30.748Z,7.41
2023-04-19T10:36:27.298Z,7.12
2023-04-19T10:42:37.972Z,7.58
2023-04-19T10:47:34.670Z,7.36
2023-04-19T10:52:31.031Z,6.78
2023-04-19T10:57:27.578Z,6.67
2023-04-19T11:03:38.447Z,6.1
2023-04-19T11:08:34.800Z,6.51
2023-04-19T11:13:31.276Z,6.39
2023-04-19T11:18:27.856Z,6.91
2023-04-19T11:24:38.529Z,6.94
2023-04-19T11:29:35.038Z,6.93
2023-04-19T11:34:31.559Z,6.76
2023-04-19T11:39:28.120Z,6.74
2023-04-19T11:44:24.701Z,6.82
2023-04-19T11:50:35.427Z,6.73
2023-04-19T11:55:31.814Z,6.61
2023-04-19T12:00:28.399Z,6.66
2023-04-19T12:05:25.242Z,6.38
2023-04-19T12:11:35.618Z,6.58
2023-04-19T12:16:32.207Z,6.49
2023-04-19T12:21:28.664Z,6.19
2023-04-19T12:26:25.210Z,6.75
2023-04-19T12:32:35.888Z,6.47
2023-04-19T12:37:32.360Z,6.33
2023-04-19T12:42:28.994Z,5.99
2023-04-19T12:53:36.110Z,6.17
2023-04-19T12:58:32.622Z,5.56
2023-04-19T13:03:29.426Z,5.54
2023-04-19T13:08:41.114Z,5.79
2023-04-19T13:14:36.484Z,5.4
2023-04-19T13:19:33.129Z,5.46
2023-04-19T13:24:29.435Z,5.48
2023-04-19T13:29:26.158Z,5.31
2023-04-19T13:35:36.646Z,5.2
2023-04-19T13:40:33.176Z,5.37
2023-04-19T13:45:29.718Z,5.15
2023-04-19T13:50:26.487Z,5.46
2023-04-19T13:56:36.965Z,5.3
2023-04-19T14:01:33.447Z,5.48
2023-04-19T14:06:29.984Z,5.31
2023-04-19T14:17:37.225Z,5.12
2023-04-19T14:22:33.702Z,5.17
2023-04-19T14:27:30.226Z,5.62
2023-04-19T14:32:27.407Z,5.74
2023-04-19T14:38:37.437Z,5.73
2023-04-19T14:43:33.983Z,5.32
2023-04-19T14:48:30.517Z,4.92
2023-04-19T14:53:27.020Z,5.06
2023-04-19T14:59:37.724Z,5.14
2023-04-19T15:04:35.767Z,5.14
2023-04-19T15:09:30.785Z,5.51
2023-04-19T15:14:27.310Z,5.51
2023-04-19T15:20:37.988Z,5.48
2023-04-19T15:25:34.743Z,5.68
2023-04-19T15:30:31.019Z,5.13
2023-04-19T15:35:29.197Z,4.6
2023-04-19T15:41:38.325Z,4.28
2023-04-19T15:46:34.883Z,4.99
2023-04-19T15:51:31.363Z,5.33
2023-04-19T15:56:27.876Z,5.5
2023-04-19T16:01:24.439Z,5.17
2023-04-19T16:07:35.153Z,5.25
2023-04-19T16:12:31.577Z,5
2023-04-19T16:17:28.159Z,5.22
2023-04-19T16:23:38.835Z,5.19
2023-04-19T16:28:35.403Z,4.66
2023-04-19T16:33:31.845Z,4.61
2023-04-19T16:38:28.414Z,4.61
2023-04-19T16:43:24.956Z,4.92
2023-04-19T16:49:35.611Z,5.06
2023-04-19T16:54:32.212Z,4.98
2023-04-19T16:59:28.689Z,4.6
2023-04-19T17:04:25.548Z,4.74
2023-04-19T17:10:35.917Z,4.65
2023-04-19T17:15:32.775Z,4.8
2023-04-19T17:20:29.171Z,4.62
2023-04-19T17:31:36.369Z,4.66
2023-04-19T17:36:32.891Z,4.64
2023-04-19T17:41:29.545Z,4.49
2023-04-19T17:46:26.052Z,4.37
2023-04-19T17:52:36.797Z,4.22
2023-04-19T17:57:33.210Z,4.19
2023-04-19T18:02:30.137Z,4.1
2023-04-19T18:07:26.342Z,4
2023-04-19T18:13:37.098Z,3.89
2023-04-19T18:18:33.589Z,3.86
2023-04-19T18:23:29.985Z,3.9
2023-04-19T18:28:27.154Z,3.74
2023-04-19T18:34:37.269Z,3.68
2023-04-19T18:39:34.804Z,3.75
2023-04-19T18:55:37.683Z,3.82
2023-04-19T19:00:34.034Z,3.81
2023-04-19T19:05:30.816Z,3.75
2023-04-19T19:16:49.923Z,3.78
2023-04-19T19:21:34.050Z,3.77
2023-04-19T19:26:30.583Z,3.83
2023-04-19T19:31:27.214Z,3.84
2023-04-19T19:37:37.781Z,3.88
2023-04-19T19:42:34.331Z,3.87
2023-04-19T19:47:30.941Z,3.92
2023-04-19T19:52:27.348Z,3.88
2023-04-19T19:58:49.632Z,3.88
2023-04-19T20:03:37.669Z,3.9
2023-04-19T20:08:31.150Z,4.03
2023-04-19T20:13:27.609Z,3.96
2023-04-19T20:19:38.324Z,4
2023-04-19T20:24:34.858Z,3.95
2023-04-19T20:29:31.324Z,3.99
2023-04-19T20:34:27.862Z,4.01
2023-04-19T20:40:38.569Z,4.01
2023-04-19T20:45:35.127Z,3.97
2023-04-19T20:49:17.703Z,4
2023-04-19T20:50:31.603Z,3.98
2023-04-19T20:55:28.165Z,4.09
2023-04-19T21:01:39.023Z,4.13
2023-04-19T21:06:35.445Z,4.07
2023-04-19T21:11:31.889Z,4.03
2023-04-19T21:16:28.450Z,4.1
2023-04-19T21:21:24.977Z,4.09
2023-04-19T21:27:35.690Z,4.2
2023-04-19T21:32:32.153Z,4.12
2023-04-19T21:37:28.695Z,4.16
2023-04-19T21:42:25.246Z,4.24
2023-04-19T21:48:35.890Z,4.33
2023-04-19T21:53:32.419Z,4.35
2023-04-19T21:58:28.958Z,4.18
2023-04-19T22:03:25.669Z,4.16
2023-04-19T22:09:36.160Z,4.49
2023-04-19T22:14:32.691Z,4.41
2023-04-19T22:19:29.213Z,4.37
2023-04-19T22:24:25.766Z,4.3
2023-04-19T22:30:36.425Z,4.37
2023-04-19T22:35:32.954Z,4.39
2023-04-19T22:40:29.503Z,4.38
2023-04-19T22:45:26.076Z,4.28
2023-04-19T22:51:36.738Z,4.21
2023-04-19T22:56:33.218Z,4.32
2023-04-19T23:01:29.792Z,4.24
2023-04-19T23:06:26.397Z,4.31
2023-04-19T23:12:36.978Z,4.26
2023-04-19T23:17:33.577Z,4.36
2023-04-19T23:22:30.111Z,4.34
2023-04-19T23:33:37.319Z,4.21
2023-04-19T23:38:33.759Z,4.19
2023-04-19T23:43:30.247Z,4.13
2023-04-19T23:48:26.973Z,4.17
2023-04-19T23:54:37.600Z,4.14
2023-04-19T23:59:34.017Z,4.2
